MO54 weather

Dudley Airport
Dudley, Missouri, United States

Public forecast

Using degrees Fahrenheit for public forecast. Weather courtesy of forecast.io.

METAR (pilot weather report)

Closest report is Poplar Bluff Municipal Airport, 11.4 nm (21.0 km) W. Retrieved 2019/06/15 23:53 UTC (18 minutes ago):

KPOF 152353Z AUTO 22008KT 10SM CLR 28/21 A2985 RMK AO2 SLP101 60000 T02830211 10294 20278 56013

TAF (pilot weather forecast)

Forecast is more than 12 hours old.

Closest forecast is Cape Girardeau Regional Airport, 36.4 nm (67.4 km) NE. Retrieved 2019/06/15 00:24 UTC (24 hours ago):

TAF KCGI 152320Z 1600/1624 21012KT P6SM FEW045 SCT200 FM160700 20008KT P6SM VCSH SCT045 BKN200 FM161500 22010G18KT P6SM SCT045 BKN090